xianbey.com alexa rank chart, xianbey.com alexa rank daily changes

xianbey.com alexa rank chart, xianbey.com alexa rank daily changes

xianbey.com
Actual rank:
116 820

RANK HISTORY

Date Rank Diff
2017/09/23 116 820 +4 571
2017/09/22 112 249 +4 783
2017/09/20 107 466 +247
2017/09/19 107 219 -757
2017/09/18 107 976 +2 849
2017/09/17 105 127 +3 034
2017/09/16 102 093 +229
2017/09/15 101 864 -1 590
2017/09/14 103 454 +1 360
2017/09/13 102 094 +2 617
2017/09/12 99 477 +2 827
2017/09/11 96 650 -572
2017/09/10 97 222 -8
2017/09/09 97 230 -88
2017/09/08 97 318 +3 995
2017/09/07 93 323 +4 082
2017/09/06 89 241 +82
2017/09/05 89 159 +2 120
2017/09/04 87 039 -446
2017/09/03 87 485 -126
2017/09/02 87 611 +2 112
2017/09/01 85 499 +705
2017/08/31 84 794 +533
2017/08/30 84 261 +227
2017/08/29 84 034 -599
2017/08/28 84 633 -516
2017/08/27 85 149 +1 717
2017/08/26 83 432 -4 019
2017/08/25 87 451 +540
2017/08/24 86 911 +643
2017/08/23 86 268 +4 113
2017/08/22 82 155 -643
2017/08/21 82 798 -2 891
2017/08/20 85 689 -2 341
2017/08/19 88 030 -2 524
2017/08/18 90 554 +3 036
2017/08/17 87 518 -1 653
2017/08/16 89 171 +54
2017/08/15 89 117 -341
2017/08/14 89 458 -1 019
2017/08/13 90 477 -2 535
2017/08/12 93 012 +1 618
2017/08/11 91 394 +351
2017/08/10 91 043 +1 043
2017/08/09 90 000 -2 179
2017/08/08 92 179 -3 728
2017/08/07 95 907 -7 170
2017/08/06 103 077 +2 615
2017/08/05 100 462 -323
2017/08/04 100 785 +587
2017/08/03 100 198 +265
2017/08/02 99 933 +47
2017/08/01 99 886 -594
2017/07/31 100 480 -393
2017/07/30 100 873 -289
2017/07/29 101 162 +2 489
2017/07/28 98 673 +39
2017/07/27 98 634 -1 552
2017/07/26 100 186 +6 274
2017/07/25 93 912

WIDGET FOR YOUR SITE

DOMAINS WITH THE NEAREST RANK

Domain Rank
webcalcio.net 116 815
wvcentral.org 116 816
easyzw.com 116 817
00ksw.net 116 818
convierto.com 116 819
xianbey.com 116 820
buptnu.com.cn 116 821
angeloni.com.br 116 822
inap.es 116 823
benjaminfulford.net 116 824
tiffany.co.uk 116 825

DOMAINS WITH THE NEAREST RANK BY TLD .com

Domain Rank
zeemind.com 116 809
ferret-one.com 116 812
vfsglobalservices-germany.com 116 814
easyzw.com 116 817
convierto.com 116 819
xianbey.com 116 820
skytap.com 116 827
penzeys.com 116 829
audiokinetic.com 116 833
awardsworldwide.com 116 836
klei.com 116 837